Terminal Aerodrome Forecast
Issued by NWS Wilmington, NC

Home | Current Version | Previous Version | Text Only | Print | Product List | Glossary On
Versions: 1 2 3 4 5 6 7 8 9 10 11 12 13 14 15 16 17 18
000
FTUS42 KILM 052320
TAFMYR
TAF
KMYR 052320Z 0600/0624 13010G15KT P6SM FEW040 SCT250
     FM060300 VRB03KT P6SM FEW040 BKN250
     FM061300 08012KT P6SM SCT040 BKN250
      AMD LTD TO CLD VIS AND WIND TIL 061100=

USA.gov is the U.S. government's official web portal to all federal, state and local government web resources and services.